sensor_id;sensor_type;location;lat;lon;timestamp;pressure;altitude;pressure_sealevel;temperature;humidity
34034;BME280;63481;52.588;22.472;2023-04-24T10:48:53;99217.56;;;20.90;35.60
34034;BME280;63481;52.588;22.472;2023-04-24T10:49:50;99231.08;;;21.01;35.24
34034;BME280;63481;52.588;22.472;2023-04-24T10:50:46;99225.42;;;20.45;36.20
34034;BME280;63481;52.588;22.472;2023-04-24T10:53:55;99214.41;;;22.79;34.88
34034;BME280;63481;52.588;22.472;2023-04-24T10:54:49;99209.83;;;21.27;36.32
34034;BME280;63481;52.588;22.472;2023-04-24T10:56:05;99208.38;;;21.13;36.78
34034;BME280;63481;52.588;22.472;2023-04-24T10:58:21;99225.42;;;20.74;34.68
34034;BME280;63481;52.588;22.472;2023-04-24T10:59:24;99205.02;;;20.57;35.27
34034;BME280;63481;52.588;22.472;2023-04-24T11:00:21;99212.96;;;20.92;35.50
34034;BME280;63481;52.588;22.472;2023-04-24T11:01:27;99219.96;;;20.61;35.56
34034;BME280;63481;52.588;22.472;2023-04-24T11:02:38;99209.50;;;20.57;35.48
34034;BME280;63481;52.588;22.472;2023-04-24T11:03:32;99217.02;;;20.52;35.44
34034;BME280;63481;52.588;22.472;2023-04-24T11:04:30;99209.92;;;20.64;36.02
34034;BME280;63481;52.588;22.472;2023-04-24T11:05:17;99215.65;;;20.72;35.60
34034;BME280;63481;52.588;22.472;2023-04-24T11:05:50;99209.38;;;20.74;35.91
34034;BME280;63481;52.588;22.472;2023-04-24T11:06:29;99212.13;;;20.81;36.35
34034;BME280;63481;52.588;22.472;2023-04-24T11:07:08;99201.28;;;20.87;35.92
34034;BME280;63481;52.588;22.472;2023-04-24T11:08:16;99202.73;;;20.82;36.02
34034;BME280;63481;52.588;22.472;2023-04-24T11:09:01;99199.77;;;20.84;35.43
34034;BME280;63481;52.588;22.472;2023-04-24T11:09:34;99205.51;;;20.91;36.13
34034;BME280;63481;52.588;22.472;2023-04-24T11:10:08;99202.30;;;21.02;35.83
34034;BME280;63481;52.588;22.472;2023-04-24T11:10:44;99208.81;;;21.09;35.36
34034;BME280;63481;52.588;22.472;2023-04-24T11:11:18;99194.49;;;21.12;34.93
34034;BME280;63481;52.588;22.472;2023-04-24T11:12:11;99199.59;;;21.23;35.71
34034;BME280;63481;52.588;22.472;2023-04-24T11:12:45;99199.95;;;21.35;35.28
34034;BME280;63481;52.588;22.472;2023-04-24T11:13:21;99204.79;;;21.43;35.21
34034;BME280;63481;52.588;22.472;2023-04-24T11:14:26;99191.72;;;21.64;33.94
34034;BME280;63481;52.588;22.472;2023-04-24T11:15:02;99196.06;;;21.55;35.48
34034;BME280;63481;52.588;22.472;2023-04-24T11:15:41;99203.89;;;21.41;34.12
34034;BME280;63481;52.588;22.472;2023-04-24T11:16:53;99193.84;;;21.07;34.04
34034;BME280;63481;52.588;22.472;2023-04-24T11:17:37;99194.02;;;21.11;33.37
34034;BME280;63481;52.588;22.472;2023-04-24T11:18:14;99198.91;;;21.19;34.03
34034;BME280;63481;52.588;22.472;2023-04-24T11:19:00;99200.81;;;21.01;34.19
34034;BME280;63481;52.588;22.472;2023-04-24T11:19:33;99193.36;;;20.91;34.73
34034;BME280;63481;52.588;22.472;2023-04-24T11:20:17;99190.12;;;21.14;33.29
34034;BME280;63481;52.588;22.472;2023-04-24T11:20:49;99187.29;;;21.20;33.44
34034;BME280;63481;52.588;22.472;2023-04-24T11:21:22;99183.85;;;21.01;33.72
34034;BME280;63481;52.588;22.472;2023-04-24T11:21:55;99188.80;;;20.83;34.17
34034;BME280;63481;52.588;22.472;2023-04-24T11:22:29;99197.07;;;20.96;35.39
34034;BME280;63481;52.588;22.472;2023-04-24T11:23:05;99187.63;;;21.14;35.00
34034;BME280;63481;52.588;22.472;2023-04-24T11:23:39;99192.65;;;21.15;34.96
34034;BME280;63481;52.588;22.472;2023-04-24T11:24:59;99194.44;;;21.15;34.45
34034;BME280;63481;52.588;22.472;2023-04-24T11:25:35;99193.48;;;21.14;34.68
34034;BME280;63481;52.588;22.472;2023-04-24T11:26:19;99195.17;;;21.24;34.97
34034;BME280;63481;52.588;22.472;2023-04-24T11:26:58;99184.40;;;21.48;35.44
34034;BME280;63481;52.588;22.472;2023-04-24T11:27:37;99184.46;;;21.67;33.64
34034;BME280;63481;52.588;22.472;2023-04-24T11:28:14;99188.32;;;21.85;34.65
34034;BME280;63481;52.588;22.472;2023-04-24T11:28:48;99192.89;;;21.76;33.66
34034;BME280;63481;52.588;22.472;2023-04-24T11:29:21;99209.16;;;21.62;33.16
34034;BME280;63481;52.588;22.472;2023-04-24T11:30:01;99202.35;;;21.34;33.57
34034;BME280;63481;52.588;22.472;2023-04-24T11:30:33;99188.63;;;20.92;33.91
34034;BME280;63481;52.588;22.472;2023-04-24T11:31:35;99193.81;;;20.84;34.26
34034;BME280;63481;52.588;22.472;2023-04-24T11:32:22;99191.46;;;20.94;34.88
34034;BME280;63481;52.588;22.472;2023-04-24T11:33:02;99187.05;;;21.10;35.00
34034;BME280;63481;52.588;22.472;2023-04-24T11:33:34;99183.63;;;21.24;34.20
34034;BME280;63481;52.588;22.472;2023-04-24T11:34:13;99182.50;;;21.15;34.27
34034;BME280;63481;52.588;22.472;2023-04-24T11:34:47;99191.84;;;21.42;34.17
34034;BME280;63481;52.588;22.472;2023-04-24T11:35:21;99197.43;;;21.23;32.91
34034;BME280;63481;52.588;22.472;2023-04-24T11:35:59;99205.50;;;21.10;32.93
34034;BME280;63481;52.588;22.472;2023-04-24T11:36:32;99189.09;;;21.09;33.32
34034;BME280;63481;52.588;22.472;2023-04-24T11:37:05;99190.86;;;20.97;33.97
34034;BME280;63481;52.588;22.472;2023-04-24T11:37:39;99190.92;;;21.26;34.34
34034;BME280;63481;52.588;22.472;2023-04-24T11:38:11;99188.87;;;21.49;34.14
34034;BME280;63481;52.588;22.472;2023-04-24T11:38:46;99196.51;;;21.34;34.66
34034;BME280;63481;52.588;22.472;2023-04-24T11:39:18;99190.92;;;21.06;33.78
34034;BME280;63481;52.588;22.472;2023-04-24T11:39:55;99191.57;;;20.76;34.06
34034;BME280;63481;52.588;22.472;2023-04-24T11:40:27;99188.08;;;20.84;34.70
34034;BME280;63481;52.588;22.472;2023-04-24T11:41:01;99188.20;;;20.79;34.51
34034;BME280;63481;52.588;22.472;2023-04-24T11:41:35;99188.16;;;20.81;34.83
34034;BME280;63481;52.588;22.472;2023-04-24T11:42:08;99187.37;;;21.24;34.67
34034;BME280;63481;52.588;22.472;2023-04-24T11:42:43;99184.84;;;21.21;33.72
34034;BME280;63481;52.588;22.472;2023-04-24T11:43:16;99180.73;;;21.14;32.39
34034;BME280;63481;52.588;22.472;2023-04-24T11:43:50;99184.04;;;21.02;33.49
34034;BME280;63481;52.588;22.472;2023-04-24T11:44:24;99187.01;;;21.18;32.90
34034;BME280;63481;52.588;22.472;2023-04-24T11:44:56;99189.00;;;21.24;32.30
34034;BME280;63481;52.588;22.472;2023-04-24T11:45:30;99183.10;;;20.77;32.93
34034;BME280;63481;52.588;22.472;2023-04-24T11:46:02;99186.20;;;20.82;33.73
34034;BME280;63481;52.588;22.472;2023-04-24T11:46:34;99187.60;;;20.97;33.52
34034;BME280;63481;52.588;22.472;2023-04-24T11:47:08;99179.83;;;21.19;34.67
34034;BME280;63481;52.588;22.472;2023-04-24T11:47:41;99172.52;;;21.48;33.50
34034;BME280;63481;52.588;22.472;2023-04-24T11:48:18;99169.23;;;21.44;33.30
34034;BME280;63481;52.588;22.472;2023-04-24T11:48:51;99172.58;;;21.34;33.63
34034;BME280;63481;52.588;22.472;2023-04-24T11:49:23;99182.06;;;21.29;33.48
34034;BME280;63481;52.588;22.472;2023-04-24T11:49:56;99184.92;;;21.33;34.11
34034;BME280;63481;52.588;22.472;2023-04-24T11:50:28;99189.93;;;21.48;33.83
34034;BME280;63481;52.588;22.472;2023-04-24T11:51:01;99184.61;;;21.16;33.20
34034;BME280;63481;52.588;22.472;2023-04-24T11:51:36;99183.85;;;21.19;33.80
34034;BME280;63481;52.588;22.472;2023-04-24T11:52:08;99190.17;;;21.36;34.63
34034;BME280;63481;52.588;22.472;2023-04-24T11:52:42;99187.17;;;21.23;33.89
34034;BME280;63481;52.588;22.472;2023-04-24T11:53:15;99190.84;;;21.41;34.79
34034;BME280;63481;52.588;22.472;2023-04-24T11:53:47;99175.91;;;21.56;33.97
34034;BME280;63481;52.588;22.472;2023-04-24T11:54:20;99174.05;;;21.44;33.02
34034;BME280;63481;52.588;22.472;2023-04-24T11:54:53;99174.84;;;21.40;32.87
34034;BME280;63481;52.588;22.472;2023-04-24T11:55:27;99179.29;;;21.21;33.37
34034;BME280;63481;52.588;22.472;2023-04-24T11:56:04;99175.26;;;21.06;34.00
34034;BME280;63481;52.588;22.472;2023-04-24T11:56:36;99171.90;;;21.38;33.52
34034;BME280;63481;52.588;22.472;2023-04-24T11:57:09;99168.39;;;21.43;32.50
34034;BME280;63481;52.588;22.472;2023-04-24T11:57:48;99168.44;;;21.38;32.74
34034;BME280;63481;52.588;22.472;2023-04-24T11:58:21;99164.58;;;21.51;32.86
34034;BME280;63481;52.588;22.472;2023-04-24T11:58:55;99186.45;;;21.37;34.40
34034;BME280;63481;52.588;22.472;2023-04-24T11:59:28;99181.06;;;21.02;33.86
34034;BME280;63481;52.588;22.472;2023-04-24T12:00:04;99183.50;;;20.99;34.69
34034;BME280;63481;52.588;22.472;2023-04-24T12:00:56;99174.41;;;21.00;33.77
34034;BME280;63481;52.588;22.472;2023-04-24T12:01:28;99178.89;;;21.08;34.22
34034;BME280;63481;52.588;22.472;2023-04-24T12:02:01;99181.46;;;21.04;34.43
34034;BME280;63481;52.588;22.472;2023-04-24T12:02:33;99187.84;;;21.11;34.30
34034;BME280;63481;52.588;22.472;2023-04-24T12:03:08;99175.53;;;21.28;33.78
34034;BME280;63481;52.588;22.472;2023-04-24T12:03:41;99183.80;;;21.01;33.93
34034;BME280;63481;52.588;22.472;2023-04-24T12:04:18;99181.21;;;21.05;33.54
34034;BME280;63481;52.588;22.472;2023-04-24T12:04:54;99176.81;;;21.20;34.21
34034;BME280;63481;52.588;22.472;2023-04-24T12:05:27;99174.55;;;21.14;32.83
34034;BME280;63481;52.588;22.472;2023-04-24T12:06:25;99184.66;;;21.07;33.99
34034;BME280;63481;52.588;22.472;2023-04-24T12:07:04;99195.56;;;21.27;34.28
34034;BME280;63481;52.588;22.472;2023-04-24T12:07:41;99179.32;;;21.57;34.19
34034;BME280;63481;52.588;22.472;2023-04-24T12:08:28;99172.46;;;21.18;32.82
34034;BME280;63481;52.588;22.472;2023-04-24T12:09:03;99186.15;;;21.28;34.17
34034;BME280;63481;52.588;22.472;2023-04-24T12:10:31;99175.70;;;21.19;34.03
34034;BME280;63481;52.588;22.472;2023-04-24T12:11:07;99167.86;;;21.42;34.51
34034;BME280;63481;52.588;22.472;2023-04-24T12:11:55;99172.25;;;21.52;34.12
34034;BME280;63481;52.588;22.472;2023-04-24T12:12:28;99169.39;;;21.31;33.47
34034;BME280;63481;52.588;22.472;2023-04-24T12:13:01;99164.75;;;21.16;33.27
34034;BME280;63481;52.588;22.472;2023-04-24T12:13:34;99152.46;;;21.00;33.56
34034;BME280;63481;52.588;22.472;2023-04-24T12:14:11;99154.90;;;21.10;33.92
34034;BME280;63481;52.588;22.472;2023-04-24T12:14:53;99154.16;;;20.94;32.97
34034;BME280;63481;52.588;22.472;2023-04-24T12:15:29;99169.49;;;21.09;34.56
34034;BME280;63481;52.588;22.472;2023-04-24T12:16:03;99174.00;;;21.23;33.76
34034;BME280;63481;52.588;22.472;2023-04-24T12:16:36;99160.26;;;21.11;33.41
34034;BME280;63481;52.588;22.472;2023-04-24T12:17:08;99154.60;;;21.11;33.61
34034;BME280;63481;52.588;22.472;2023-04-24T12:17:41;99152.67;;;21.21;34.22
34034;BME280;63481;52.588;22.472;2023-04-24T12:18:14;99148.76;;;21.37;34.22
34034;BME280;63481;52.588;22.472;2023-04-24T12:18:51;99153.14;;;21.60;33.43
34034;BME280;63481;52.588;22.472;2023-04-24T12:19:23;99154.84;;;21.69;34.21
34034;BME280;63481;52.588;22.472;2023-04-24T12:20:32;99152.90;;;21.49;33.43
34034;BME280;63481;52.588;22.472;2023-04-24T12:21:20;99164.77;;;21.60;33.63
34034;BME280;63481;52.588;22.472;2023-04-24T12:22:04;99155.91;;;21.24;32.85
34034;BME280;63481;52.588;22.472;2023-04-24T12:22:59;99148.48;;;21.11;33.04
34034;BME280;63481;52.588;22.472;2023-04-24T12:23:35;99152.22;;;20.90;33.65
34034;BME280;63481;52.588;22.472;2023-04-24T12:24:07;99150.02;;;20.83;33.59
34034;BME280;63481;52.588;22.472;2023-04-24T12:25:00;99146.35;;;21.02;33.93
34034;BME280;63481;52.588;22.472;2023-04-24T12:25:32;99143.74;;;20.94;32.82
34034;BME280;63481;52.588;22.472;2023-04-24T12:26:07;99149.80;;;21.15;33.00
34034;BME280;63481;52.588;22.472;2023-04-24T12:26:42;99143.94;;;21.18;32.98
34034;BME280;63481;52.588;22.472;2023-04-24T12:27:21;99141.44;;;21.42;32.85
34034;BME280;63481;52.588;22.472;2023-04-24T12:27:55;99150.59;;;21.79;33.06
34034;BME280;63481;52.588;22.472;2023-04-24T12:28:35;99150.27;;;21.60;31.81
34034;BME280;63481;52.588;22.472;2023-04-24T12:29:07;99145.89;;;21.59;32.47
34034;BME280;63481;52.588;22.472;2023-04-24T12:29:56;99141.39;;;21.49;31.71
34034;BME280;63481;52.588;22.472;2023-04-24T12:30:31;99142.19;;;21.47;32.45
34034;BME280;63481;52.588;22.472;2023-04-24T12:31:03;99143.41;;;21.35;31.60
34034;BME280;63481;52.588;22.472;2023-04-24T12:31:36;99144.37;;;21.42;31.85
34034;BME280;63481;52.588;22.472;2023-04-24T12:32:16;99143.83;;;21.29;31.86
34034;BME280;63481;52.588;22.472;2023-04-24T12:32:49;99147.71;;;21.19;31.88
34034;BME280;63481;52.588;22.472;2023-04-24T12:33:21;99135.18;;;21.17;31.48
34034;BME280;63481;52.588;22.472;2023-04-24T12:33:55;99138.27;;;21.27;31.98
34034;BME280;63481;52.588;22.472;2023-04-24T12:34:27;99142.52;;;21.57;32.09
34034;BME280;63481;52.588;22.472;2023-04-24T12:35:00;99135.29;;;21.55;30.59
34034;BME280;63481;52.588;22.472;2023-04-24T12:35:33;99131.80;;;21.46;30.27
34034;BME280;63481;52.588;22.472;2023-04-24T12:36:05;99138.12;;;21.29;30.31
34034;BME280;63481;52.588;22.472;2023-04-24T12:36:38;99134.49;;;21.40;30.50
34034;BME280;63481;52.588;22.472;2023-04-24T12:37:13;99133.83;;;21.34;30.51
34034;BME280;63481;52.588;22.472;2023-04-24T12:37:45;99137.13;;;21.51;31.52
34034;BME280;63481;52.588;22.472;2023-04-24T12:38:22;99136.09;;;21.50;30.80
34034;BME280;63481;52.588;22.472;2023-04-24T12:38:54;99135.25;;;21.59;31.81
34034;BME280;63481;52.588;22.472;2023-04-24T12:39:27;99133.59;;;21.61;30.81
34034;BME280;63481;52.588;22.472;2023-04-24T12:40:05;99121.48;;;21.61;30.86
34034;BME280;63481;52.588;22.472;2023-04-24T12:40:39;99127.42;;;21.52;31.01
34034;BME280;63481;52.588;22.472;2023-04-24T12:41:13;99121.84;;;21.62;30.59
34034;BME280;63481;52.588;22.472;2023-04-24T12:41:55;99122.42;;;21.57;30.87
34034;BME280;63481;52.588;22.472;2023-04-24T12:42:30;99119.80;;;21.68;31.21
34034;BME280;63481;52.588;22.472;2023-04-24T12:43:15;99115.95;;;21.84;31.04
34034;BME280;63481;52.588;22.472;2023-04-24T12:43:54;99119.70;;;21.97;30.70
34034;BME280;63481;52.588;22.472;2023-04-24T12:45:05;99115.48;;;21.98;30.90
34034;BME280;63481;52.588;22.472;2023-04-24T12:45:38;99131.60;;;21.48;30.76
34034;BME280;63481;52.588;22.472;2023-04-24T12:46:10;99127.30;;;21.34;31.16
34034;BME280;63481;52.588;22.472;2023-04-24T12:46:42;99125.16;;;21.29;31.23
34034;BME280;63481;52.588;22.472;2023-04-24T12:47:17;99127.83;;;21.18;31.69
34034;BME280;63481;52.588;22.472;2023-04-24T12:47:49;99126.55;;;20.92;31.87
34034;BME280;63481;52.588;22.472;2023-04-24T12:48:21;99128.13;;;20.81;32.16
34034;BME280;63481;52.588;22.472;2023-04-24T12:48:54;99127.33;;;20.91;32.67
34034;BME280;63481;52.588;22.472;2023-04-24T12:49:30;99130.13;;;20.89;32.03
34034;BME280;63481;52.588;22.472;2023-04-24T12:50:02;99125.08;;;20.72;31.89
34034;BME280;63481;52.588;22.472;2023-04-24T12:50:35;99128.16;;;20.72;31.79
34034;BME280;63481;52.588;22.472;2023-04-24T12:51:07;99119.27;;;20.84;30.68
34034;BME280;63481;52.588;22.472;2023-04-24T12:51:39;99116.73;;;20.89;30.59
34034;BME280;63481;52.588;22.472;2023-04-24T12:52:12;99121.88;;;20.81;31.38
34034;BME280;63481;52.588;22.472;2023-04-24T12:52:44;99130.34;;;20.98;31.33
34034;BME280;63481;52.588;22.472;2023-04-24T12:53:17;99121.89;;;21.08;31.35
34034;BME280;63481;52.588;22.472;2023-04-24T12:53:49;99122.34;;;21.21;30.99
34034;BME280;63481;52.588;22.472;2023-04-24T12:54:22;99116.83;;;20.96;29.97
34034;BME280;63481;52.588;22.472;2023-04-24T12:54:59;99116.96;;;20.91;30.47
34034;BME280;63481;52.588;22.472;2023-04-24T12:55:31;99119.09;;;20.96;30.70
34034;BME280;63481;52.588;22.472;2023-04-24T12:56:04;99120.27;;;20.92;30.90
34034;BME280;63481;52.588;22.472;2023-04-24T12:56:36;99122.48;;;20.89;30.81
34034;BME280;63481;52.588;22.472;2023-04-24T12:57:11;99114.15;;;20.77;30.71
34034;BME280;63481;52.588;22.472;2023-04-24T12:57:43;99113.54;;;20.75;31.09
34034;BME280;63481;52.588;22.472;2023-04-24T12:58:15;99113.17;;;20.83;30.63
34034;BME280;63481;52.588;22.472;2023-04-24T12:58:47;99115.40;;;20.91;31.07
34034;BME280;63481;52.588;22.472;2023-04-24T12:59:19;99114.13;;;20.98;30.68
34034;BME280;63481;52.588;22.472;2023-04-24T12:59:54;99110.10;;;21.01;30.80
34034;BME280;63481;52.588;22.472;2023-04-24T13:00:27;99117.64;;;20.87;30.91
34034;BME280;63481;52.588;22.472;2023-04-24T13:00:59;99116.89;;;20.79;30.59
34034;BME280;63481;52.588;22.472;2023-04-24T13:01:32;99115.59;;;20.64;29.86
34034;BME280;63481;52.588;22.472;2023-04-24T13:02:06;99112.25;;;20.58;29.66
34034;BME280;63481;52.588;22.472;2023-04-24T13:02:41;99114.58;;;20.60;30.28
34034;BME280;63481;52.588;22.472;2023-04-24T13:03:13;99111.20;;;20.58;30.35
34034;BME280;63481;52.588;22.472;2023-04-24T13:03:45;99115.06;;;20.57;30.68
34034;BME280;63481;52.588;22.472;2023-04-24T13:04:18;99111.55;;;20.51;29.83
34034;BME280;63481;52.588;22.472;2023-04-24T13:04:50;99110.80;;;20.50;31.00
34034;BME280;63481;52.588;22.472;2023-04-24T13:05:23;99107.76;;;20.54;31.00
34034;BME280;63481;52.588;22.472;2023-04-24T13:05:55;99101.06;;;20.58;30.88
34034;BME280;63481;52.588;22.472;2023-04-24T13:06:27;99102.30;;;20.62;30.89
34034;BME280;63481;52.588;22.472;2023-04-24T13:06:59;99099.34;;;20.69;30.93
34034;BME280;63481;52.588;22.472;2023-04-24T13:07:34;99098.76;;;20.80;31.10
34034;BME280;63481;52.588;22.472;2023-04-24T13:08:06;99099.02;;;20.86;30.11
34034;BME280;63481;52.588;22.472;2023-04-24T13:08:38;99099.88;;;20.84;29.83
34034;BME280;63481;52.588;22.472;2023-04-24T13:09:11;99094.67;;;20.78;30.14
34034;BME280;63481;52.588;22.472;2023-04-24T13:09:44;99100.82;;;20.88;30.92
34034;BME280;63481;52.588;22.472;2023-04-24T13:10:16;99102.45;;;20.85;31.09
34034;BME280;63481;52.588;22.472;2023-04-24T13:10:49;99103.01;;;20.79;31.73
34034;BME280;63481;52.588;22.472;2023-04-24T13:11:21;99105.55;;;20.65;30.76
34034;BME280;63481;52.588;22.472;2023-04-24T13:11:54;99106.48;;;20.56;30.48
34034;BME280;63481;52.588;22.472;2023-04-24T13:12:28;99104.92;;;20.53;30.65
34034;BME280;63481;52.588;22.472;2023-04-24T13:13:00;99101.81;;;20.51;30.48
34034;BME280;63481;52.588;22.472;2023-04-24T13:13:33;99106.11;;;20.50;31.00
34034;BME280;63481;52.588;22.472;2023-04-24T13:14:05;99101.85;;;20.45;30.66
34034;BME280;63481;52.588;22.472;2023-04-24T13:14:37;99101.47;;;20.43;30.90
34034;BME280;63481;52.588;22.472;2023-04-24T13:15:10;99107.23;;;20.44;30.94
34034;BME280;63481;52.588;22.472;2023-04-24T13:15:42;99103.86;;;20.48;31.23
34034;BME280;63481;52.588;22.472;2023-04-24T13:16:36;99101.11;;;20.45;30.58
34034;BME280;63481;52.588;22.472;2023-04-24T13:17:10;99099.73;;;20.43;30.51
34034;BME280;63481;52.588;22.472;2023-04-24T13:17:43;99100.27;;;20.49;30.78
34034;BME280;63481;52.588;22.472;2023-04-24T13:18:16;99100.23;;;20.56;30.37
34034;BME280;63481;52.588;22.472;2023-04-24T13:18:48;99098.20;;;20.61;30.66
34034;BME280;63481;52.588;22.472;2023-04-24T13:19:20;99095.33;;;20.69;30.56
34034;BME280;63481;52.588;22.472;2023-04-24T13:19:54;99090.02;;;20.75;30.11
34034;BME280;63481;52.588;22.472;2023-04-24T13:20:26;99085.85;;;20.99;29.91
34034;BME280;63481;52.588;22.472;2023-04-24T13:20:58;99086.89;;;21.18;29.83
34034;BME280;63481;52.588;22.472;2023-04-24T13:21:31;99080.09;;;21.28;28.58
34034;BME280;63481;52.588;22.472;2023-04-24T13:22:03;99080.52;;;21.29;28.78
34034;BME280;63481;52.588;22.472;2023-04-24T13:22:36;99078.39;;;21.40;28.58
34034;BME280;63481;52.588;22.472;2023-04-24T13:23:09;99073.65;;;21.40;28.31
34034;BME280;63481;52.588;22.472;2023-04-24T13:23:42;99074.49;;;21.37;28.59
34034;BME280;63481;52.588;22.472;2023-04-24T13:24:14;99069.02;;;21.44;28.14
34034;BME280;63481;52.588;22.472;2023-04-24T13:24:47;99067.71;;;21.60;28.98
34034;BME280;63481;52.588;22.472;2023-04-24T13:25:20;99073.17;;;21.52;29.18
34034;BME280;63481;52.588;22.472;2023-04-24T13:25:54;99079.50;;;21.55;29.03
34034;BME280;63481;52.588;22.472;2023-04-24T13:26:29;99079.17;;;21.46;28.82
34034;BME280;63481;52.588;22.472;2023-04-24T13:27:01;99074.30;;;21.62;29.46
34034;BME280;63481;52.588;22.472;2023-04-24T13:27:34;99074.77;;;21.60;29.84
34034;BME280;63481;52.588;22.472;2023-04-24T13:28:06;99078.94;;;21.58;29.11
34034;BME280;63481;52.588;22.472;2023-04-24T13:28:38;99080.17;;;21.61;29.51
34034;BME280;63481;52.588;22.472;2023-04-24T13:29:10;99073.46;;;21.62;29.18
34034;BME280;63481;52.588;22.472;2023-04-24T13:29:43;99068.05;;;21.59;29.21
34034;BME280;63481;52.588;22.472;2023-04-24T13:30:15;99065.52;;;21.61;29.60
34034;BME280;63481;52.588;22.472;2023-04-24T13:30:47;99077.20;;;21.70;29.02
34034;BME280;63481;52.588;22.472;2023-04-24T13:31:20;99072.23;;;21.62;29.78
34034;BME280;63481;52.588;22.472;2023-04-24T13:31:53;99073.92;;;21.85;30.03
34034;BME280;63481;52.588;22.472;2023-04-24T13:32:27;99077.43;;;21.83;29.57
34034;BME280;63481;52.588;22.472;2023-04-24T13:33:00;99071.71;;;21.61;29.29
34034;BME280;63481;52.588;22.472;2023-04-24T13:33:32;99070.95;;;21.54;29.39
34034;BME280;63481;52.588;22.472;2023-04-24T13:34:05;99070.02;;;21.50;29.58
34034;BME280;63481;52.588;22.472;2023-04-24T13:34:37;99069.42;;;21.62;29.95
34034;BME280;63481;52.588;22.472;2023-04-24T13:35:12;99070.29;;;21.71;29.71
34034;BME280;63481;52.588;22.472;2023-04-24T13:35:45;99068.35;;;21.81;30.35
34034;BME280;63481;52.588;22.472;2023-04-24T13:36:17;99065.62;;;21.73;29.25
34034;BME280;63481;52.588;22.472;2023-04-24T13:36:50;99064.33;;;21.52;29.45
34034;BME280;63481;52.588;22.472;2023-04-24T13:37:23;99082.05;;;21.26;29.22
34034;BME280;63481;52.588;22.472;2023-04-24T13:37:55;99071.67;;;21.22;29.53
34034;BME280;63481;52.588;22.472;2023-04-24T13:38:28;99074.73;;;21.21;30.11
34034;BME280;63481;52.588;22.472;2023-04-24T13:39:01;99065.40;;;21.36;29.48
34034;BME280;63481;52.588;22.472;2023-04-24T13:39:36;99061.91;;;21.29;29.66
34034;BME280;63481;52.588;22.472;2023-04-24T13:40:09;99064.03;;;21.24;29.17
34034;BME280;63481;52.588;22.472;2023-04-24T13:40:41;99071.66;;;21.17;30.08
34034;BME280;63481;52.588;22.472;2023-04-24T13:41:13;99062.56;;;21.26;29.94
34034;BME280;63481;52.588;22.472;2023-04-24T13:41:46;99074.77;;;21.24;30.05
34034;BME280;63481;52.588;22.472;2023-04-24T13:42:21;99076.25;;;21.36;30.89
34034;BME280;63481;52.588;22.472;2023-04-24T13:42:54;99066.91;;;21.41;30.32
34034;BME280;63481;52.588;22.472;2023-04-24T13:43:28;99074.20;;;21.32;30.30
34034;BME280;63481;52.588;22.472;2023-04-24T13:44:02;99063.23;;;21.20;29.89
34034;BME280;63481;52.588;22.472;2023-04-24T13:44:37;99062.14;;;21.19;29.46
34034;BME280;63481;52.588;22.472;2023-04-24T13:45:10;99070.80;;;21.20;29.62
34034;BME280;63481;52.588;22.472;2023-04-24T13:45:42;99066.34;;;21.15;29.46
34034;BME280;63481;52.588;22.472;2023-04-24T13:46:15;99071.31;;;21.24;29.46
34034;BME280;63481;52.588;22.472;2023-04-24T13:46:50;99070.30;;;21.29;30.42
34034;BME280;63481;52.588;22.472;2023-04-24T13:47:23;99064.63;;;21.22;29.98
34034;BME280;63481;52.588;22.472;2023-04-24T13:47:55;99070.04;;;21.42;29.89
34034;BME280;63481;52.588;22.472;2023-04-24T13:48:29;99071.00;;;21.35;30.04
34034;BME280;63481;52.588;22.472;2023-04-24T13:49:02;99074.75;;;21.27;30.08
34034;BME280;63481;52.588;22.472;2023-04-24T13:49:35;99072.41;;;21.28;30.05
34034;BME280;63481;52.588;22.472;2023-04-24T13:50:08;99069.31;;;21.15;30.00
34034;BME280;63481;52.588;22.472;2023-04-24T13:50:42;99063.92;;;21.15;30.48
34034;BME280;63481;52.588;22.472;2023-04-24T13:51:14;99061.94;;;21.21;30.35
34034;BME280;63481;52.588;22.472;2023-04-24T13:51:47;99059.16;;;21.34;31.46
34034;BME280;63481;52.588;22.472;2023-04-24T13:52:19;99060.05;;;21.58;31.24
34034;BME280;63481;52.588;22.472;2023-04-24T13:52:51;99053.24;;;21.48;30.30
34034;BME280;63481;52.588;22.472;2023-04-24T13:53:24;99060.14;;;21.38;30.81
34034;BME280;63481;52.588;22.472;2023-04-24T13:53:56;99063.50;;;21.35;30.72
34034;BME280;63481;52.588;22.472;2023-04-24T13:54:28;99061.74;;;21.14;29.68
34034;BME280;63481;52.588;22.472;2023-04-24T13:55:01;99060.48;;;20.99;29.69
34034;BME280;63481;52.588;22.472;2023-04-24T13:55:33;99060.92;;;21.03;30.45
34034;BME280;63481;52.588;22.472;2023-04-24T13:56:06;99061.98;;;20.95;29.53
34034;BME280;63481;52.588;22.472;2023-04-24T13:56:39;99056.94;;;20.94;29.64
34034;BME280;63481;52.588;22.472;2023-04-24T13:57:14;99058.96;;;20.96;30.04
34034;BME280;63481;52.588;22.472;2023-04-24T13:57:47;99052.73;;;20.98;30.03
34034;BME280;63481;52.588;22.472;2023-04-24T13:58:19;99051.70;;;21.10;29.99
34034;BME280;63481;52.588;22.472;2023-04-24T13:58:52;99050.61;;;21.18;29.97
34034;BME280;63481;52.588;22.472;2023-04-24T13:59:26;99055.17;;;21.25;30.55
34034;BME280;63481;52.588;22.472;2023-04-24T13:59:58;99055.31;;;21.41;29.94
34034;BME280;63481;52.588;22.472;2023-04-24T14:00:39;99057.53;;;21.35;30.32
34034;BME280;63481;52.588;22.472;2023-04-24T14:01:11;99071.13;;;21.31;29.67
34034;BME280;63481;52.588;22.472;2023-04-24T14:01:44;99064.00;;;21.27;29.35
34034;BME280;63481;52.588;22.472;2023-04-24T14:02:16;99058.56;;;21.26;29.87
34034;BME280;63481;52.588;22.472;2023-04-24T14:02:49;99054.94;;;21.23;29.08
34034;BME280;63481;52.588;22.472;2023-04-24T14:03:21;99059.30;;;21.03;28.57